| DS18B20 | SHTC3 | PZEM-004T | WiFi | ||||||||
|---|---|---|---|---|---|---|---|---|---|---|---|
| ID | Date d/m/Y & Time | data1 สูง | data2 ต่ำ | data3 นอก | temp pcb | hum pcb | Volt | Amp | Watt | rssi | Time |
| 14471 | 20/08/2026 22:11:58 | 30.8  | 30.9  | 28.4  | 31.7  | 67.3  | 227.6  | 0.04  | 4.6  | -79  | 22:11 |
| 14470 | 20/08/2026 22:07:15 | 30.9  | 31.0  | 28.0  | 31.8  | 67.2  | 229.3  | 0.04  | 4.6  | -77  | 22:07 |
| 14469 | 20/08/2026 22:02:32 | 30.9  | 31.1  | 28.2  | 31.9  | 67.3  | 228.1  | 0.04  | 4.6  | -77  | 22:02 |
| 14468 | 20/08/2026 21:57:48 | 30.9  | 31.1  | 28.4  | 31.8  | 67.3  | 230.6  | 0.04  | 4.5  | -79  | 21:57 |
| 14467 | 20/08/2026 21:53:05 | 30.9  | 31.1  | 28.7  | 31.9  | 67.4  | 229.7  | 0.04  | 4.5  | -75  | 21:53 |
| 14466 | 20/08/2026 21:48:21 | 30.9  | 31.1  | 28.8  | 32.0  | 67.4  | 230.1  | 0.04  | 4.6  | -79  | 21:48 |
| 14465 | 20/08/2026 21:43:38 | 30.9  | 31.1  | 28.8  | 32.0  | 67.4  | 229.9  | 0.04  | 4.5  | -79  | 21:43 |
| 14464 | 20/08/2026 21:38:55 | 31.0  | 31.2  | 28.6  | 32.1  | 67.3  | 230.0  | 0.04  | 4.6  | -80  | 21:38 |
| 14463 | 20/08/2026 21:34:11 | 31.0  | 31.2  | 28.5  | 32.0  | 67.3  | 231.9  | 0.04  | 4.6  | -78  | 21:34 |
| 14462 | 20/08/2026 21:29:27 | 31.0  | 31.2  | 28.4  | 32.1  | 67.3  | 230.3  | 0.04  | 4.6  | -78  | 21:29 |
| 14461 | 20/08/2026 21:24:44 | 31.1  | 31.2  | 28.5  | 32.1  | 67.3  | 231.4  | 0.04  | 4.6  | -77  | 21:24 |
| 14460 | 20/08/2026 21:20:00 | 31.1  | 31.2  | 28.7  | 32.1  | 67.3  | 229.8  | 0.04  | 4.6  | -78  | 21:20 |
| 14459 | 20/08/2026 21:15:17 | 31.1  | 31.3  | 28.7  | 32.1  | 67.3  | 227.7  | 0.04  | 4.6  | -79  | 21:15 |
| 14458 | 20/08/2026 21:10:33 | 31.2  | 31.3  | 29.0  | 32.1  | 67.3  | 229.8  | 0.04  | 4.6  | -78  | 21:10 |
| 14457 | 20/08/2026 21:05:50 | 31.2  | 31.4  | 29.0  | 32.2  | 67.4  | 227.8  | 0.04  | 4.6  | -75  | 21:05 |
| 14456 | 20/08/2026 21:01:07 | 31.2  | 31.4  | 28.8  | 32.1  | 67.2  | 227.3  | 0.04  | 4.6  | -77  | 21:01 |
| 14455 | 20/08/2026 20:56:23 | 31.2  | 31.4  | 29.0  | 32.3  | 67.2  | 227.2  | 0.04  | 4.6  | -79  | 20:56 |
| 14454 | 20/08/2026 20:51:40 | 31.3  | 31.4  | 29.3  | 32.1  | 67.1  | 226.5  | 0.04  | 4.6  | -79  | 20:51 |
| 14453 | 20/08/2026 20:46:57 | 31.3  | 31.5  | 29.5  | 32.3  | 67.2  | 226.5  | 0.04  | 4.6  | -79  | 20:46 |
| 14452 | 20/08/2026 20:42:14 | 31.4  | 31.5  | 29.7  | 32.3  | 67.2  | 226.2  | 0.04  | 4.6  | -78  | 20:42 |
| 14451 | 20/08/2026 20:37:30 | 31.4  | 31.6  | 29.8  | 32.4  | 67.1  | 226.1  | 0.04  | 4.6  | -78  | 20:37 |
| 14450 | 20/08/2026 20:32:46 | 31.4  | 31.6  | 29.8  | 32.3  | 67.1  | 225.7  | 0.04  | 4.6  | -78  | 20:32 |
| 14449 | 20/08/2026 20:28:03 | 31.4  | 31.6  | 29.9  | 32.5  | 67.1  | 225.5  | 0.04  | 4.6  | -79  | 20:28 |
| 14448 | 20/08/2026 20:23:20 | 31.5  | 31.6  | 29.9  | 32.5  | 67.0  | 225.2  | 0.04  | 4.6  | -80  | 20:23 |